CheckWX is a tool to help pilots better visualize weather data.  It is not intended as a substitute for an official pre-flight weather briefing.

20:34:24 UTC

KBYI TAF
Burley Municipal Airport
Burley, Idaho, USA
KBYI 221739Z 2218/2318 27015KT P6SM -RA SCT025 OVC040 FM230100 VRB05KT P6SM -RA SCT025 BKN060 OVC090 FM230600 21008KT P6SM SCT030 BKN050 OVC090 FM231400 24008KT P6SM VCFG BKN008 BKN120 FM231600 VRB03KT P6SM SCT008 SCT025 BKN100

Mar-22@
18:00 UTC

Mar-22 @ 18:00 UTC

Mar-23@
01:00 UTC

Mar-23 @ 01:00 UTC

KBYI 221739Z 2218/2318 27015KT P6SM -RA SCT025 OVC040
Wind
  • 270° at 15 KTS
Conditions
Light Rain
Cloud Levels
  • Scattered at 2,500' AGL
  • Overcast at 4,000' AGL

Mar-23@
01:00 UTC

Mar-23 @ 01:00 UTC

Mar-23@
06:00 UTC

Mar-23 @ 06:00 UTC

FM230100 VRB05KT P6SM -RA SCT025 BKN060 OVC090

From

From Standard forecast or significant change

Wind
  • Variable at 5 KTS
Conditions
Light Rain
Cloud Levels
  • Scattered at 2,500' AGL
  • Broken at 6,000' AGL
  • Overcast at 9,000' AGL

Mar-23@
06:00 UTC

Mar-23 @ 06:00 UTC

Mar-23@
14:00 UTC

Mar-23 @ 14:00 UTC

FM230600 21008KT P6SM SCT030 BKN050 OVC090

From

From Standard forecast or significant change

Wind
  • 210° at 8 KTS
Cloud Levels
  • Scattered at 3,000' AGL
  • Broken at 5,000' AGL
  • Overcast at 9,000' AGL

Mar-23@
14:00 UTC

Mar-23 @ 14:00 UTC

Mar-23@
16:00 UTC

Mar-23 @ 16:00 UTC

FM231400 24008KT P6SM VCFG BKN008 BKN120

From

From Standard forecast or significant change

Wind
  • 240° at 8 KTS
Conditions
Area Fog
Cloud Levels
  • Broken at 800' AGL
  • Broken at 12,000' AGL

Mar-23@
16:00 UTC

Mar-23 @ 16:00 UTC

Mar-23@
18:00 UTC

Mar-23 @ 18:00 UTC

FM231600 VRB03KT P6SM SCT008 SCT025 BKN100

From

From Standard forecast or significant change

Wind
  • Variable at 3 KTS
Cloud Levels
  • Scattered at 800' AGL
  • Scattered at 2,500' AGL
  • Broken at 10,000' AGL